sensor_id;sensor_type;location;lat;lon;timestamp;temperature;humidity
37786;DHT22;23625;48.784;9.336;2023-05-02T00:00:29;9.30;99.90
37786;DHT22;23625;48.784;9.336;2023-05-02T00:02:56;9.30;99.90
37786;DHT22;23625;48.784;9.336;2023-05-02T00:05:22;9.20;99.90
37786;DHT22;23625;48.784;9.336;2023-05-02T00:07:47;9.20;99.90
37786;DHT22;23625;48.784;9.336;2023-05-02T00:10:13;9.10;99.90
37786;DHT22;23625;48.784;9.336;2023-05-02T00:12:38;9.00;99.90
37786;DHT22;23625;48.784;9.336;2023-05-02T00:15:05;8.90;99.90
37786;DHT22;23625;48.784;9.336;2023-05-02T00:17:31;8.90;99.90
37786;DHT22;23625;48.784;9.336;2023-05-02T00:19:56;8.90;99.90
37786;DHT22;23625;48.784;9.336;2023-05-02T00:22:22;9.00;99.90
37786;DHT22;23625;48.784;9.336;2023-05-02T00:24:47;8.90;99.90
37786;DHT22;23625;48.784;9.336;2023-05-02T00:27:13;8.90;99.90
37786;DHT22;23625;48.784;9.336;2023-05-02T00:29:39;8.90;99.90
37786;DHT22;23625;48.784;9.336;2023-05-02T00:32:07;8.90;99.90
37786;DHT22;23625;48.784;9.336;2023-05-02T00:34:33;8.90;99.90
37786;DHT22;23625;48.784;9.336;2023-05-02T00:36:59;8.80;99.90
37786;DHT22;23625;48.784;9.336;2023-05-02T00:39:24;8.80;99.90
37786;DHT22;23625;48.784;9.336;2023-05-02T00:41:57;8.70;99.90
37786;DHT22;23625;48.784;9.336;2023-05-02T00:44:22;8.80;99.90
37786;DHT22;23625;48.784;9.336;2023-05-02T00:46:48;8.80;99.90
37786;DHT22;23625;48.784;9.336;2023-05-02T00:49:14;8.70;99.90
37786;DHT22;23625;48.784;9.336;2023-05-02T00:51:40;8.70;99.90
37786;DHT22;23625;48.784;9.336;2023-05-02T00:54:06;8.70;99.90
37786;DHT22;23625;48.784;9.336;2023-05-02T00:56:31;8.70;99.90
37786;DHT22;23625;48.784;9.336;2023-05-02T00:58:57;8.70;99.90
37786;DHT22;23625;48.784;9.336;2023-05-02T01:01:35;8.60;99.90
37786;DHT22;23625;48.784;9.336;2023-05-02T01:07:17;8.50;99.90
37786;DHT22;23625;48.784;9.336;2023-05-02T01:12:31;8.50;99.90
37786;DHT22;23625;48.784;9.336;2023-05-02T01:14:58;8.50;99.90
37786;DHT22;23625;48.784;9.336;2023-05-02T01:17:29;8.50;99.90
37786;DHT22;23625;48.784;9.336;2023-05-02T01:19:59;8.40;99.90
37786;DHT22;23625;48.784;9.336;2023-05-02T01:22:28;8.40;99.90
37786;DHT22;23625;48.784;9.336;2023-05-02T01:30:27;8.30;99.90
37786;DHT22;23625;48.784;9.336;2023-05-02T01:32:54;8.40;99.90
37786;DHT22;23625;48.784;9.336;2023-05-02T01:35:22;8.30;99.90
37786;DHT22;23625;48.784;9.336;2023-05-02T01:37:48;8.30;99.90
37786;DHT22;23625;48.784;9.336;2023-05-02T01:40:18;8.30;99.90
37786;DHT22;23625;48.784;9.336;2023-05-02T01:42:46;8.20;99.90
37786;DHT22;23625;48.784;9.336;2023-05-02T01:45:13;8.20;99.90
37786;DHT22;23625;48.784;9.336;2023-05-02T01:47:42;8.20;99.90
37786;DHT22;23625;48.784;9.336;2023-05-02T01:50:11;8.20;99.90
37786;DHT22;23625;48.784;9.336;2023-05-02T01:52:39;8.10;99.90
37786;DHT22;23625;48.784;9.336;2023-05-02T01:55:09;8.10;99.90
37786;DHT22;23625;48.784;9.336;2023-05-02T01:57:38;8.10;99.90
37786;DHT22;23625;48.784;9.336;2023-05-02T02:00:06;8.20;99.90
37786;DHT22;23625;48.784;9.336;2023-05-02T02:02:35;8.20;99.90
37786;DHT22;23625;48.784;9.336;2023-05-02T02:05:03;8.10;99.90
37786;DHT22;23625;48.784;9.336;2023-05-02T02:07:30;8.10;99.90
37786;DHT22;23625;48.784;9.336;2023-05-02T02:09:56;8.10;99.90
37786;DHT22;23625;48.784;9.336;2023-05-02T02:12:34;8.10;99.90
37786;DHT22;23625;48.784;9.336;2023-05-02T02:15:20;8.10;99.90
37786;DHT22;23625;48.784;9.336;2023-05-02T02:18:01;8.10;99.90
37786;DHT22;23625;48.784;9.336;2023-05-02T02:20:29;8.10;99.90
37786;DHT22;23625;48.784;9.336;2023-05-02T02:22:58;8.00;99.90
37786;DHT22;23625;48.784;9.336;2023-05-02T02:25:25;8.00;99.90
37786;DHT22;23625;48.784;9.336;2023-05-02T02:27:52;8.00;99.90
37786;DHT22;23625;48.784;9.336;2023-05-02T02:30:18;8.00;99.90
37786;DHT22;23625;48.784;9.336;2023-05-02T02:32:43;7.90;99.90
37786;DHT22;23625;48.784;9.336;2023-05-02T02:35:09;8.00;99.90
37786;DHT22;23625;48.784;9.336;2023-05-02T02:41:12;8.00;99.90
37786;DHT22;23625;48.784;9.336;2023-05-02T02:43:54;7.90;99.90
37786;DHT22;23625;48.784;9.336;2023-05-02T02:46:53;8.00;99.90
37786;DHT22;23625;48.784;9.336;2023-05-02T02:49:52;8.00;99.90
37786;DHT22;23625;48.784;9.336;2023-05-02T02:52:27;8.00;99.90
37786;DHT22;23625;48.784;9.336;2023-05-02T02:55:01;7.90;99.90
37786;DHT22;23625;48.784;9.336;2023-05-02T02:57:43;7.80;99.90
37786;DHT22;23625;48.784;9.336;2023-05-02T03:00:24;7.80;99.90
37786;DHT22;23625;48.784;9.336;2023-05-02T03:02:52;7.90;99.90
37786;DHT22;23625;48.784;9.336;2023-05-02T03:05:19;7.90;99.90
37786;DHT22;23625;48.784;9.336;2023-05-02T03:07:45;7.80;99.90
37786;DHT22;23625;48.784;9.336;2023-05-02T03:10:11;7.80;99.90
37786;DHT22;23625;48.784;9.336;2023-05-02T03:12:37;7.70;99.90
37786;DHT22;23625;48.784;9.336;2023-05-02T03:17:49;7.60;99.90
37786;DHT22;23625;48.784;9.336;2023-05-02T03:20:15;7.60;99.90
37786;DHT22;23625;48.784;9.336;2023-05-02T03:22:41;7.60;99.90
37786;DHT22;23625;48.784;9.336;2023-05-02T03:25:06;7.60;99.90
37786;DHT22;23625;48.784;9.336;2023-05-02T03:27:32;7.60;99.90
37786;DHT22;23625;48.784;9.336;2023-05-02T03:29:58;7.60;99.90
37786;DHT22;23625;48.784;9.336;2023-05-02T03:32:23;7.50;99.90
37786;DHT22;23625;48.784;9.336;2023-05-02T03:34:49;7.50;99.90
37786;DHT22;23625;48.784;9.336;2023-05-02T03:37:14;7.50;99.90
37786;DHT22;23625;48.784;9.336;2023-05-02T03:39:40;7.50;99.90
37786;DHT22;23625;48.784;9.336;2023-05-02T03:42:05;7.50;99.90
37786;DHT22;23625;48.784;9.336;2023-05-02T03:44:31;7.50;99.90
37786;DHT22;23625;48.784;9.336;2023-05-02T03:46:56;7.50;99.90
37786;DHT22;23625;48.784;9.336;2023-05-02T03:49:22;7.50;99.90
37786;DHT22;23625;48.784;9.336;2023-05-02T03:51:48;7.50;99.90
37786;DHT22;23625;48.784;9.336;2023-05-02T03:54:13;7.50;99.90
37786;DHT22;23625;48.784;9.336;2023-05-02T03:56:39;7.50;99.90
37786;DHT22;23625;48.784;9.336;2023-05-02T03:59:04;7.50;99.90
37786;DHT22;23625;48.784;9.336;2023-05-02T04:01:30;7.50;99.90
37786;DHT22;23625;48.784;9.336;2023-05-02T04:03:56;7.50;99.90
37786;DHT22;23625;48.784;9.336;2023-05-02T04:06:24;7.50;99.90
37786;DHT22;23625;48.784;9.336;2023-05-02T04:08:50;7.50;99.90
37786;DHT22;23625;48.784;9.336;2023-05-02T04:11:15;7.50;99.90
37786;DHT22;23625;48.784;9.336;2023-05-02T04:13:41;7.50;99.90
37786;DHT22;23625;48.784;9.336;2023-05-02T04:16:08;7.50;99.90
37786;DHT22;23625;48.784;9.336;2023-05-02T04:18:33;7.60;99.90
37786;DHT22;23625;48.784;9.336;2023-05-02T04:20:59;7.60;99.90
37786;DHT22;23625;48.784;9.336;2023-05-02T04:23:25;7.60;99.90
37786;DHT22;23625;48.784;9.336;2023-05-02T04:25:54;7.60;99.90
37786;DHT22;23625;48.784;9.336;2023-05-02T04:28:21;7.70;99.90
37786;DHT22;23625;48.784;9.336;2023-05-02T04:30:48;7.70;99.90
37786;DHT22;23625;48.784;9.336;2023-05-02T04:33:14;7.70;99.90
37786;DHT22;23625;48.784;9.336;2023-05-02T04:35:40;7.70;99.90
37786;DHT22;23625;48.784;9.336;2023-05-02T04:38:05;7.70;99.90
37786;DHT22;23625;48.784;9.336;2023-05-02T04:40:32;7.70;99.90
37786;DHT22;23625;48.784;9.336;2023-05-02T04:42:58;7.70;99.90
37786;DHT22;23625;48.784;9.336;2023-05-02T04:45:24;7.70;99.90
37786;DHT22;23625;48.784;9.336;2023-05-02T04:47:50;7.80;99.90
37786;DHT22;23625;48.784;9.336;2023-05-02T04:50:16;7.80;99.90
37786;DHT22;23625;48.784;9.336;2023-05-02T04:52:42;7.80;99.90
37786;DHT22;23625;48.784;9.336;2023-05-02T04:55:07;7.90;99.90
37786;DHT22;23625;48.784;9.336;2023-05-02T04:57:33;7.90;99.90
37786;DHT22;23625;48.784;9.336;2023-05-02T04:59:59;7.90;99.90
37786;DHT22;23625;48.784;9.336;2023-05-02T05:02:24;7.90;99.90
37786;DHT22;23625;48.784;9.336;2023-05-02T05:04:51;7.90;99.90
37786;DHT22;23625;48.784;9.336;2023-05-02T05:07:17;8.00;99.90
37786;DHT22;23625;48.784;9.336;2023-05-02T05:09:43;8.10;99.90
37786;DHT22;23625;48.784;9.336;2023-05-02T05:12:08;8.10;99.90
37786;DHT22;23625;48.784;9.336;2023-05-02T05:14:34;8.10;99.90
37786;DHT22;23625;48.784;9.336;2023-05-02T05:17:00;8.20;99.90
37786;DHT22;23625;48.784;9.336;2023-05-02T05:19:25;8.20;99.90
37786;DHT22;23625;48.784;9.336;2023-05-02T05:21:51;8.30;99.90
37786;DHT22;23625;48.784;9.336;2023-05-02T05:24:16;8.40;99.90
37786;DHT22;23625;48.784;9.336;2023-05-02T05:26:42;8.50;99.90
37786;DHT22;23625;48.784;9.336;2023-05-02T05:29:08;8.60;99.90
37786;DHT22;23625;48.784;9.336;2023-05-02T05:31:33;8.70;99.90
37786;DHT22;23625;48.784;9.336;2023-05-02T05:33:59;8.70;99.90
37786;DHT22;23625;48.784;9.336;2023-05-02T05:36:26;8.90;99.90
37786;DHT22;23625;48.784;9.336;2023-05-02T05:38:54;8.90;99.90
37786;DHT22;23625;48.784;9.336;2023-05-02T05:41:21;8.90;99.90
37786;DHT22;23625;48.784;9.336;2023-05-02T05:43:47;9.00;99.90
37786;DHT22;23625;48.784;9.336;2023-05-02T05:46:13;9.10;99.90
37786;DHT22;23625;48.784;9.336;2023-05-02T05:48:38;9.20;99.90
37786;DHT22;23625;48.784;9.336;2023-05-02T05:51:04;9.30;99.90
37786;DHT22;23625;48.784;9.336;2023-05-02T05:53:30;9.30;99.90
37786;DHT22;23625;48.784;9.336;2023-05-02T05:55:56;9.40;99.90
37786;DHT22;23625;48.784;9.336;2023-05-02T05:58:22;9.40;99.90
37786;DHT22;23625;48.784;9.336;2023-05-02T06:00:48;9.50;99.90
37786;DHT22;23625;48.784;9.336;2023-05-02T06:03:14;9.50;99.90
37786;DHT22;23625;48.784;9.336;2023-05-02T06:05:40;9.50;99.90
37786;DHT22;23625;48.784;9.336;2023-05-02T06:08:05;9.60;99.90
37786;DHT22;23625;48.784;9.336;2023-05-02T06:10:31;9.60;99.90
37786;DHT22;23625;48.784;9.336;2023-05-02T06:12:57;9.70;99.90
37786;DHT22;23625;48.784;9.336;2023-05-02T06:15:23;9.70;99.90
37786;DHT22;23625;48.784;9.336;2023-05-02T06:17:51;9.70;99.90
37786;DHT22;23625;48.784;9.336;2023-05-02T06:20:17;9.70;99.90
37786;DHT22;23625;48.784;9.336;2023-05-02T06:22:42;9.80;99.90
37786;DHT22;23625;48.784;9.336;2023-05-02T06:25:08;9.90;99.90
37786;DHT22;23625;48.784;9.336;2023-05-02T06:27:34;10.00;99.90
37786;DHT22;23625;48.784;9.336;2023-05-02T06:30:00;10.00;99.90
37786;DHT22;23625;48.784;9.336;2023-05-02T06:32:32;10.20;99.90
37786;DHT22;23625;48.784;9.336;2023-05-02T06:34:57;10.30;99.90
37786;DHT22;23625;48.784;9.336;2023-05-02T06:37:23;10.30;99.90
37786;DHT22;23625;48.784;9.336;2023-05-02T06:39:48;10.40;99.90
37786;DHT22;23625;48.784;9.336;2023-05-02T06:42:14;10.60;99.90
37786;DHT22;23625;48.784;9.336;2023-05-02T06:44:40;10.60;99.90
37786;DHT22;23625;48.784;9.336;2023-05-02T06:47:05;10.70;99.90
37786;DHT22;23625;48.784;9.336;2023-05-02T06:49:31;10.80;99.90
37786;DHT22;23625;48.784;9.336;2023-05-02T06:51:57;10.90;99.90
37786;DHT22;23625;48.784;9.336;2023-05-02T06:54:23;11.10;99.90
37786;DHT22;23625;48.784;9.336;2023-05-02T06:56:48;11.20;99.90
37786;DHT22;23625;48.784;9.336;2023-05-02T06:59:14;11.30;99.90
37786;DHT22;23625;48.784;9.336;2023-05-02T07:01:42;11.40;99.90
37786;DHT22;23625;48.784;9.336;2023-05-02T07:04:08;11.50;99.90
37786;DHT22;23625;48.784;9.336;2023-05-02T07:06:33;11.50;99.90
37786;DHT22;23625;48.784;9.336;2023-05-02T07:08:59;11.60;99.90
37786;DHT22;23625;48.784;9.336;2023-05-02T07:11:25;11.60;99.90
37786;DHT22;23625;48.784;9.336;2023-05-02T07:13:52;11.70;99.90
37786;DHT22;23625;48.784;9.336;2023-05-02T07:16:17;11.70;99.90
37786;DHT22;23625;48.784;9.336;2023-05-02T07:18:44;11.90;99.90
37786;DHT22;23625;48.784;9.336;2023-05-02T07:21:12;11.90;99.90
37786;DHT22;23625;48.784;9.336;2023-05-02T07:23:38;11.90;99.90
37786;DHT22;23625;48.784;9.336;2023-05-02T07:26:04;11.90;99.90
37786;DHT22;23625;48.784;9.336;2023-05-02T07:28:32;11.90;99.90
37786;DHT22;23625;48.784;9.336;2023-05-02T07:30:58;12.00;99.90
37786;DHT22;23625;48.784;9.336;2023-05-02T07:33:23;12.00;99.90
37786;DHT22;23625;48.784;9.336;2023-05-02T07:35:49;12.00;99.90
37786;DHT22;23625;48.784;9.336;2023-05-02T07:38:15;12.10;99.90
37786;DHT22;23625;48.784;9.336;2023-05-02T07:40:41;12.10;99.90
37786;DHT22;23625;48.784;9.336;2023-05-02T07:43:08;12.10;99.90
37786;DHT22;23625;48.784;9.336;2023-05-02T07:45:34;12.10;99.90
37786;DHT22;23625;48.784;9.336;2023-05-02T07:48:00;12.20;99.90
37786;DHT22;23625;48.784;9.336;2023-05-02T07:50:25;12.20;99.90
37786;DHT22;23625;48.784;9.336;2023-05-02T07:52:53;12.10;99.90
37786;DHT22;23625;48.784;9.336;2023-05-02T07:55:19;12.20;99.90
37786;DHT22;23625;48.784;9.336;2023-05-02T07:57:45;12.20;99.90
37786;DHT22;23625;48.784;9.336;2023-05-02T08:00:11;12.20;99.90
37786;DHT22;23625;48.784;9.336;2023-05-02T08:02:37;12.30;99.90
37786;DHT22;23625;48.784;9.336;2023-05-02T08:05:03;12.40;99.90
37786;DHT22;23625;48.784;9.336;2023-05-02T08:07:31;12.30;99.90
37786;DHT22;23625;48.784;9.336;2023-05-02T08:09:56;12.20;99.90
37786;DHT22;23625;48.784;9.336;2023-05-02T08:12:22;12.40;99.90
37786;DHT22;23625;48.784;9.336;2023-05-02T08:14:48;12.40;99.90
37786;DHT22;23625;48.784;9.336;2023-05-02T08:17:13;12.30;99.90
37786;DHT22;23625;48.784;9.336;2023-05-02T08:19:39;12.40;99.90
37786;DHT22;23625;48.784;9.336;2023-05-02T08:22:05;12.40;99.90
37786;DHT22;23625;48.784;9.336;2023-05-02T08:24:31;12.40;99.90
37786;DHT22;23625;48.784;9.336;2023-05-02T08:26:56;12.40;99.90
37786;DHT22;23625;48.784;9.336;2023-05-02T08:29:22;12.40;99.90
37786;DHT22;23625;48.784;9.336;2023-05-02T08:31:48;12.40;99.90
37786;DHT22;23625;48.784;9.336;2023-05-02T08:34:14;12.40;99.90
37786;DHT22;23625;48.784;9.336;2023-05-02T08:36:39;12.40;99.90
37786;DHT22;23625;48.784;9.336;2023-05-02T08:39:05;12.50;99.90
37786;DHT22;23625;48.784;9.336;2023-05-02T08:41:32;12.50;99.90
37786;DHT22;23625;48.784;9.336;2023-05-02T08:43:58;12.50;99.90
37786;DHT22;23625;48.784;9.336;2023-05-02T08:46:24;12.60;99.90
37786;DHT22;23625;48.784;9.336;2023-05-02T08:48:51;12.60;99.90
37786;DHT22;23625;48.784;9.336;2023-05-02T08:51:17;12.70;99.90
37786;DHT22;23625;48.784;9.336;2023-05-02T08:53:43;12.70;99.90
37786;DHT22;23625;48.784;9.336;2023-05-02T08:56:10;12.70;99.90
37786;DHT22;23625;48.784;9.336;2023-05-02T08:58:37;12.90;99.90
37786;DHT22;23625;48.784;9.336;2023-05-02T09:01:09;12.90;99.90
37786;DHT22;23625;48.784;9.336;2023-05-02T09:03:37;13.00;99.90
37786;DHT22;23625;48.784;9.336;2023-05-02T09:06:06;13.20;99.90
37786;DHT22;23625;48.784;9.336;2023-05-02T09:08:33;13.20;99.90
37786;DHT22;23625;48.784;9.336;2023-05-02T09:11:01;13.20;99.90
37786;DHT22;23625;48.784;9.336;2023-05-02T09:13:41;13.40;99.90
37786;DHT22;23625;48.784;9.336;2023-05-02T09:16:12;13.50;99.90
37786;DHT22;23625;48.784;9.336;2023-05-02T09:18:39;13.50;99.90
37786;DHT22;23625;48.784;9.336;2023-05-02T09:21:07;13.50;99.90
37786;DHT22;23625;48.784;9.336;2023-05-02T09:23:45;13.60;99.90
37786;DHT22;23625;48.784;9.336;2023-05-02T09:26:24;13.70;99.90
37786;DHT22;23625;48.784;9.336;2023-05-02T09:29:00;13.80;99.90
37786;DHT22;23625;48.784;9.336;2023-05-02T09:31:28;13.80;99.90
37786;DHT22;23625;48.784;9.336;2023-05-02T09:34:11;13.90;99.90
37786;DHT22;23625;48.784;9.336;2023-05-02T09:36:56;14.10;99.90
37786;DHT22;23625;48.784;9.336;2023-05-02T09:39:26;14.30;99.90
37786;DHT22;23625;48.784;9.336;2023-05-02T09:41:53;14.50;99.90
37786;DHT22;23625;48.784;9.336;2023-05-02T09:44:21;14.60;99.90
37786;DHT22;23625;48.784;9.336;2023-05-02T09:46:56;14.70;99.90
37786;DHT22;23625;48.784;9.336;2023-05-02T09:49:38;15.10;99.90
37786;DHT22;23625;48.784;9.336;2023-05-02T09:52:15;14.90;99.90
37786;DHT22;23625;48.784;9.336;2023-05-02T09:54:41;15.00;99.90
37786;DHT22;23625;48.784;9.336;2023-05-02T09:57:07;15.20;99.90
37786;DHT22;23625;48.784;9.336;2023-05-02T09:59:34;15.40;99.90
37786;DHT22;23625;48.784;9.336;2023-05-02T10:02:06;15.20;99.90
37786;DHT22;23625;48.784;9.336;2023-05-02T10:04:34;15.00;99.90
37786;DHT22;23625;48.784;9.336;2023-05-02T10:07:01;15.30;99.90
37786;DHT22;23625;48.784;9.336;2023-05-02T10:09:28;15.70;99.90
37786;DHT22;23625;48.784;9.336;2023-05-02T10:11:57;16.00;99.90
37786;DHT22;23625;48.784;9.336;2023-05-02T10:14:28;16.20;99.90
37786;DHT22;23625;48.784;9.336;2023-05-02T10:17:04;16.40;99.90
37786;DHT22;23625;48.784;9.336;2023-05-02T10:19:42;16.60;99.90
37786;DHT22;23625;48.784;9.336;2023-05-02T10:22:10;16.50;98.40
37786;DHT22;23625;48.784;9.336;2023-05-02T10:24:37;16.20;99.90
37786;DHT22;23625;48.784;9.336;2023-05-02T10:27:04;16.00;99.90
37786;DHT22;23625;48.784;9.336;2023-05-02T10:29:31;15.80;99.90
37786;DHT22;23625;48.784;9.336;2023-05-02T10:31:57;16.00;99.90
37786;DHT22;23625;48.784;9.336;2023-05-02T10:34:26;16.30;99.90
37786;DHT22;23625;48.784;9.336;2023-05-02T10:36:53;16.70;99.90
37786;DHT22;23625;48.784;9.336;2023-05-02T10:39:19;16.70;97.50
37786;DHT22;23625;48.784;9.336;2023-05-02T10:41:50;16.60;99.90
37786;DHT22;23625;48.784;9.336;2023-05-02T10:44:17;17.00;96.50
37786;DHT22;23625;48.784;9.336;2023-05-02T10:46:43;17.20;97.50
37786;DHT22;23625;48.784;9.336;2023-05-02T10:49:10;17.30;93.20
37786;DHT22;23625;48.784;9.336;2023-05-02T10:51:38;17.00;90.40
37786;DHT22;23625;48.784;9.336;2023-05-02T10:59:39;17.40;79.90
37786;DHT22;23625;48.784;9.336;2023-05-02T11:05:05;17.40;92.10
37786;DHT22;23625;48.784;9.336;2023-05-02T11:07:35;17.80;90.10
37786;DHT22;23625;48.784;9.336;2023-05-02T11:12:56;18.00;81.70
37786;DHT22;23625;48.784;9.336;2023-05-02T11:18:05;17.60;87.10
37786;DHT22;23625;48.784;9.336;2023-05-02T11:20:32;17.80;82.30
37786;DHT22;23625;48.784;9.336;2023-05-02T11:23:19;17.50;82.20
37786;DHT22;23625;48.784;9.336;2023-05-02T11:25:55;17.40;78.00
37786;DHT22;23625;48.784;9.336;2023-05-02T11:31:08;18.20;83.60
37786;DHT22;23625;48.784;9.336;2023-05-02T11:33:35;18.40;76.50
37786;DHT22;23625;48.784;9.336;2023-05-02T11:36:01;18.20;74.80
37786;DHT22;23625;48.784;9.336;2023-05-02T11:38:37;18.00;78.40
37786;DHT22;23625;48.784;9.336;2023-05-02T11:41:03;17.60;88.30
37786;DHT22;23625;48.784;9.336;2023-05-02T11:43:29;17.50;89.70
37786;DHT22;23625;48.784;9.336;2023-05-02T11:45:56;17.40;86.00
37786;DHT22;23625;48.784;9.336;2023-05-02T11:48:25;17.30;87.60
37786;DHT22;23625;48.784;9.336;2023-05-02T11:50:56;17.40;85.10
37786;DHT22;23625;48.784;9.336;2023-05-02T11:53:24;17.50;84.40
37786;DHT22;23625;48.784;9.336;2023-05-02T11:55:52;17.30;82.30
37786;DHT22;23625;48.784;9.336;2023-05-02T11:58:21;17.40;93.80
37786;DHT22;23625;48.784;9.336;2023-05-02T12:00:47;17.40;89.30
37786;DHT22;23625;48.784;9.336;2023-05-02T12:03:30;17.40;88.40
37786;DHT22;23625;48.784;9.336;2023-05-02T12:08:36;17.30;90.10
37786;DHT22;23625;48.784;9.336;2023-05-02T12:11:02;17.80;90.10
37786;DHT22;23625;48.784;9.336;2023-05-02T12:13:28;18.10;82.20
37786;DHT22;23625;48.784;9.336;2023-05-02T12:15:54;18.50;81.80
37786;DHT22;23625;48.784;9.336;2023-05-02T12:18:23;18.70;73.30
37786;DHT22;23625;48.784;9.336;2023-05-02T12:20:53;18.80;73.10
37786;DHT22;23625;48.784;9.336;2023-05-02T12:23:20;18.70;70.20
37786;DHT22;23625;48.784;9.336;2023-05-02T12:25:47;18.70;68.70
37786;DHT22;23625;48.784;9.336;2023-05-02T12:28:15;18.80;72.20
37786;DHT22;23625;48.784;9.336;2023-05-02T12:30:41;18.80;71.00
37786;DHT22;23625;48.784;9.336;2023-05-02T12:33:07;18.60;68.80
37786;DHT22;23625;48.784;9.336;2023-05-02T12:35:34;18.60;73.60
37786;DHT22;23625;48.784;9.336;2023-05-02T12:40:52;18.30;70.60
37786;DHT22;23625;48.784;9.336;2023-05-02T12:43:19;17.80;75.50
37786;DHT22;23625;48.784;9.336;2023-05-02T12:45:46;17.50;77.30
37786;DHT22;23625;48.784;9.336;2023-05-02T12:50:45;17.40;80.10
37786;DHT22;23625;48.784;9.336;2023-05-02T12:53:11;17.50;83.00
37786;DHT22;23625;48.784;9.336;2023-05-02T12:55:36;17.60;85.50
37786;DHT22;23625;48.784;9.336;2023-05-02T13:00:31;18.50;79.10
37786;DHT22;23625;48.784;9.336;2023-05-02T13:02:56;18.90;81.40
37786;DHT22;23625;48.784;9.336;2023-05-02T13:05:22;19.00;76.00
37786;DHT22;23625;48.784;9.336;2023-05-02T13:07:48;19.40;76.60
37786;DHT22;23625;48.784;9.336;2023-05-02T13:10:14;19.70;75.60
37786;DHT22;23625;48.784;9.336;2023-05-02T13:12:42;20.00;75.10
37786;DHT22;23625;48.784;9.336;2023-05-02T13:15:08;20.30;73.90
37786;DHT22;23625;48.784;9.336;2023-05-02T13:17:34;20.40;71.00
37786;DHT22;23625;48.784;9.336;2023-05-02T13:20:00;20.20;70.50
37786;DHT22;23625;48.784;9.336;2023-05-02T13:22:26;20.20;71.70
37786;DHT22;23625;48.784;9.336;2023-05-02T13:24:52;20.30;71.50
37786;DHT22;23625;48.784;9.336;2023-05-02T13:27:17;20.20;68.30
37786;DHT22;23625;48.784;9.336;2023-05-02T13:29:44;19.90;73.70
37786;DHT22;23625;48.784;9.336;2023-05-02T13:32:10;19.30;78.10
37786;DHT22;23625;48.784;9.336;2023-05-02T13:34:36;19.20;78.60
37786;DHT22;23625;48.784;9.336;2023-05-02T13:37:01;19.00;82.60
37786;DHT22;23625;48.784;9.336;2023-05-02T13:39:27;19.00;83.00
37786;DHT22;23625;48.784;9.336;2023-05-02T13:41:53;19.10;79.90
37786;DHT22;23625;48.784;9.336;2023-05-02T13:44:18;19.10;75.90
37786;DHT22;23625;48.784;9.336;2023-05-02T13:46:44;19.10;77.60
37786;DHT22;23625;48.784;9.336;2023-05-02T13:49:09;19.00;76.50
37786;DHT22;23625;48.784;9.336;2023-05-02T13:51:35;19.10;78.30
37786;DHT22;23625;48.784;9.336;2023-05-02T13:54:01;19.40;76.50
37786;DHT22;23625;48.784;9.336;2023-05-02T13:56:27;19.80;73.90
37786;DHT22;23625;48.784;9.336;2023-05-02T13:58:52;20.20;71.00
37786;DHT22;23625;48.784;9.336;2023-05-02T14:01:18;20.50;70.00
37786;DHT22;23625;48.784;9.336;2023-05-02T14:03:43;20.80;65.30
37786;DHT22;23625;48.784;9.336;2023-05-02T14:06:09;20.70;63.90
37786;DHT22;23625;48.784;9.336;2023-05-02T14:08:35;20.50;63.30
37786;DHT22;23625;48.784;9.336;2023-05-02T14:11:00;20.60;63.10
37786;DHT22;23625;48.784;9.336;2023-05-02T14:13:28;20.60;62.60
37786;DHT22;23625;48.784;9.336;2023-05-02T14:15:54;20.40;64.20
37786;DHT22;23625;48.784;9.336;2023-05-02T14:18:20;20.60;64.60
37786;DHT22;23625;48.784;9.336;2023-05-02T14:20:45;20.60;64.20
37786;DHT22;23625;48.784;9.336;2023-05-02T14:23:11;20.50;63.80
37786;DHT22;23625;48.784;9.336;2023-05-02T14:25:37;20.20;64.80
37786;DHT22;23625;48.784;9.336;2023-05-02T14:28:03;19.80;64.80
37786;DHT22;23625;48.784;9.336;2023-05-02T14:30:29;19.50;64.50
37786;DHT22;23625;48.784;9.336;2023-05-02T14:32:56;19.40;65.50
37786;DHT22;23625;48.784;9.336;2023-05-02T14:35:21;19.50;64.20
37786;DHT22;23625;48.784;9.336;2023-05-02T14:37:47;19.80;64.30
37786;DHT22;23625;48.784;9.336;2023-05-02T14:40:13;20.00;63.30
37786;DHT22;23625;48.784;9.336;2023-05-02T14:42:39;19.90;62.40
37786;DHT22;23625;48.784;9.336;2023-05-02T14:45:06;19.60;61.00
37786;DHT22;23625;48.784;9.336;2023-05-02T14:47:32;19.40;63.90
37786;DHT22;23625;48.784;9.336;2023-05-02T14:49:59;18.90;65.40
37786;DHT22;23625;48.784;9.336;2023-05-02T14:52:25;18.90;67.50
37786;DHT22;23625;48.784;9.336;2023-05-02T14:54:51;18.80;68.40
37786;DHT22;23625;48.784;9.336;2023-05-02T14:57:17;18.90;63.30
37786;DHT22;23625;48.784;9.336;2023-05-02T14:59:43;18.90;64.10
37786;DHT22;23625;48.784;9.336;2023-05-02T15:02:09;19.20;61.70
37786;DHT22;23625;48.784;9.336;2023-05-02T15:04:35;19.50;61.60
37786;DHT22;23625;48.784;9.336;2023-05-02T15:07:01;19.70;61.00
37786;DHT22;23625;48.784;9.336;2023-05-02T15:09:27;20.10;60.80
37786;DHT22;23625;48.784;9.336;2023-05-02T15:11:53;20.10;60.90
37786;DHT22;23625;48.784;9.336;2023-05-02T15:14:19;20.00;61.20
37786;DHT22;23625;48.784;9.336;2023-05-02T15:16:45;20.10;59.90
37786;DHT22;23625;48.784;9.336;2023-05-02T15:19:11;20.20;59.70
37786;DHT22;23625;48.784;9.336;2023-05-02T15:21:36;20.30;58.70
37786;DHT22;23625;48.784;9.336;2023-05-02T15:24:02;20.30;58.80
37786;DHT22;23625;48.784;9.336;2023-05-02T15:26:28;20.00;58.90
37786;DHT22;23625;48.784;9.336;2023-05-02T15:28:54;19.90;59.00
37786;DHT22;23625;48.784;9.336;2023-05-02T15:31:20;19.60;59.40
37786;DHT22;23625;48.784;9.336;2023-05-02T15:33:46;19.40;59.40
37786;DHT22;23625;48.784;9.336;2023-05-02T15:36:12;19.50;58.80
37786;DHT22;23625;48.784;9.336;2023-05-02T15:38:38;19.70;60.30
37786;DHT22;23625;48.784;9.336;2023-05-02T15:41:06;19.80;60.90
37786;DHT22;23625;48.784;9.336;2023-05-02T15:43:32;19.90;60.70
37786;DHT22;23625;48.784;9.336;2023-05-02T15:45:58;19.90;59.40
37786;DHT22;23625;48.784;9.336;2023-05-02T15:48:29;19.90;61.40
37786;DHT22;23625;48.784;9.336;2023-05-02T15:50:56;20.00;61.80
37786;DHT22;23625;48.784;9.336;2023-05-02T15:53:22;20.00;60.50
37786;DHT22;23625;48.784;9.336;2023-05-02T15:55:48;20.10;60.60
37786;DHT22;23625;48.784;9.336;2023-05-02T15:58:15;20.20;61.00
37786;DHT22;23625;48.784;9.336;2023-05-02T16:00:41;20.30;59.60
37786;DHT22;23625;48.784;9.336;2023-05-02T16:03:07;20.20;60.00
37786;DHT22;23625;48.784;9.336;2023-05-02T16:05:33;20.10;58.70
37786;DHT22;23625;48.784;9.336;2023-05-02T16:07:59;20.00;58.50
37786;DHT22;23625;48.784;9.336;2023-05-02T16:10:24;20.10;58.50
37786;DHT22;23625;48.784;9.336;2023-05-02T16:12:50;20.20;57.90
37786;DHT22;23625;48.784;9.336;2023-05-02T16:15:16;20.30;58.30
37786;DHT22;23625;48.784;9.336;2023-05-02T16:17:41;20.50;58.30
37786;DHT22;23625;48.784;9.336;2023-05-02T16:20:07;20.30;57.40
37786;DHT22;23625;48.784;9.336;2023-05-02T16:22:33;20.10;57.30